sensor_id;sensor_type;location;lat;lon;timestamp;pressure;altitude;pressure_sealevel;temperature;humidity
36798;BME280;22748;8.426;99.512;2023-02-18T00:01:10;100847.13;;;28.87;59.08
36798;BME280;22748;8.426;99.512;2023-02-18T00:03:45;100850.25;;;28.84;59.30
36798;BME280;22748;8.426;99.512;2023-02-18T00:06:17;100845.28;;;28.81;59.45
36798;BME280;22748;8.426;99.512;2023-02-18T00:08:49;100852.91;;;28.78;59.78
36798;BME280;22748;8.426;99.512;2023-02-18T00:11:21;100857.88;;;28.74;59.40
36798;BME280;22748;8.426;99.512;2023-02-18T00:13:55;100851.84;;;28.72;59.81
36798;BME280;22748;8.426;99.512;2023-02-18T00:16:27;100842.78;;;28.73;59.96
36798;BME280;22748;8.426;99.512;2023-02-18T00:19:04;100841.09;;;28.72;59.57
36798;BME280;22748;8.426;99.512;2023-02-18T00:21:35;100846.47;;;28.72;59.69
36798;BME280;22748;8.426;99.512;2023-02-18T00:24:06;100849.59;;;28.69;59.78
36798;BME280;22748;8.426;99.512;2023-02-18T00:26:37;100854.97;;;28.69;60.17
36798;BME280;22748;8.426;99.512;2023-02-18T00:29:08;100865.09;;;28.74;59.90
36798;BME280;22748;8.426;99.512;2023-02-18T00:31:41;100873.59;;;28.77;60.08
36798;BME280;22748;8.426;99.512;2023-02-18T00:34:15;100876.91;;;28.79;60.29
36798;BME280;22748;8.426;99.512;2023-02-18T00:36:46;100880.88;;;28.83;60.10
36798;BME280;22748;8.426;99.512;2023-02-18T00:39:15;100880.63;;;28.85;60.54
36798;BME280;22748;8.426;99.512;2023-02-18T00:41:46;100878.56;;;28.87;60.55
36798;BME280;22748;8.426;99.512;2023-02-18T00:44:17;100889.75;;;28.90;59.98
36798;BME280;22748;8.426;99.512;2023-02-18T00:46:48;100892.25;;;28.92;59.80
36798;BME280;22748;8.426;99.512;2023-02-18T00:49:22;100887.06;;;28.90;60.16
36798;BME280;22748;8.426;99.512;2023-02-18T00:51:53;100892.25;;;28.92;60.45
36798;BME280;22748;8.426;99.512;2023-02-18T00:54:24;100898.47;;;28.92;60.28
36798;BME280;22748;8.426;99.512;2023-02-18T00:56:55;100895.56;;;28.94;60.09
36798;BME280;22748;8.426;99.512;2023-02-18T00:59:26;100893.28;;;28.98;60.25
36798;BME280;22748;8.426;99.512;2023-02-18T01:01:58;100902.59;;;29.02;59.75
36798;BME280;22748;8.426;99.512;2023-02-18T01:04:31;100909.66;;;29.03;60.19
36798;BME280;22748;8.426;99.512;2023-02-18T01:07:01;100907.56;;;29.05;60.35
36798;BME280;22748;8.426;99.512;2023-02-18T01:09:32;100910.88;;;29.07;60.01
36798;BME280;22748;8.426;99.512;2023-02-18T01:12:03;100915.91;;;29.10;59.93
36798;BME280;22748;8.426;99.512;2023-02-18T01:14:32;100925.63;;;29.11;60.13
36798;BME280;22748;8.426;99.512;2023-02-18T01:17:02;100921.50;;;29.15;60.60
36798;BME280;22748;8.426;99.512;2023-02-18T01:19:41;100930.38;;;29.16;60.20
36798;BME280;22748;8.426;99.512;2023-02-18T01:22:12;100929.16;;;29.18;60.26
36798;BME280;22748;8.426;99.512;2023-02-18T01:24:42;100930.81;;;29.19;60.29
36798;BME280;22748;8.426;99.512;2023-02-18T01:27:14;100927.09;;;29.20;60.52
36798;BME280;22748;8.426;99.512;2023-02-18T01:29:44;100923.38;;;29.21;60.61
36798;BME280;22748;8.426;99.512;2023-02-18T01:32:15;100934.75;;;29.23;60.57
36798;BME280;22748;8.426;99.512;2023-02-18T01:34:47;100944.47;;;29.24;60.38
36798;BME280;22748;8.426;99.512;2023-02-18T01:37:18;100943.25;;;29.27;60.15
36798;BME280;22748;8.426;99.512;2023-02-18T01:39:48;100942.00;;;29.29;60.34
36798;BME280;22748;8.426;99.512;2023-02-18T01:42:22;100941.59;;;29.32;60.40
36798;BME280;22748;8.426;99.512;2023-02-18T01:44:55;100944.91;;;29.35;60.19
36798;BME280;22748;8.426;99.512;2023-02-18T01:47:50;100951.97;;;29.36;60.15
36798;BME280;22748;8.426;99.512;2023-02-18T01:50:22;100960.03;;;29.36;60.10
36798;BME280;22748;8.426;99.512;2023-02-18T01:52:54;100964.38;;;29.37;60.16
36798;BME280;22748;8.426;99.512;2023-02-18T01:55:26;100974.69;;;29.40;60.32
36798;BME280;22748;8.426;99.512;2023-02-18T01:57:57;100971.81;;;29.41;59.89
36798;BME280;22748;8.426;99.512;2023-02-18T02:00:29;100974.31;;;29.43;59.96
36798;BME280;22748;8.426;99.512;2023-02-18T02:03:00;100972.63;;;29.42;59.58
36798;BME280;22748;8.426;99.512;2023-02-18T02:05:36;100976.81;;;29.44;59.98
36798;BME280;22748;8.426;99.512;2023-02-18T02:08:07;100973.50;;;29.49;59.99
36798;BME280;22748;8.426;99.512;2023-02-18T02:10:57;100987.16;;;29.54;59.61
36798;BME280;22748;8.426;99.512;2023-02-18T02:13:43;100984.47;;;29.54;59.55
36798;BME280;22748;8.426;99.512;2023-02-18T02:16:25;100986.13;;;29.55;59.82
36798;BME280;22748;8.426;99.512;2023-02-18T02:19:17;100993.38;;;29.61;59.94
36798;BME280;22748;8.426;99.512;2023-02-18T02:31:09;101005.00;;;29.68;58.88
36798;BME280;22748;8.426;99.512;2023-02-18T02:36:57;100996.94;;;29.75;58.35
36798;BME280;22748;8.426;99.512;2023-02-18T02:39:35;101002.09;;;29.77;58.63
36798;BME280;22748;8.426;99.512;2023-02-18T02:42:16;101003.78;;;29.84;58.35
36798;BME280;22748;8.426;99.512;2023-02-18T02:44:55;100996.31;;;29.86;58.25
36798;BME280;22748;8.426;99.512;2023-02-18T02:47:31;100992.19;;;29.90;57.96
36798;BME280;22748;8.426;99.512;2023-02-18T02:50:07;100994.66;;;29.92;58.17
36798;BME280;22748;8.426;99.512;2023-02-18T02:52:48;101000.03;;;29.92;57.92
36798;BME280;22748;8.426;99.512;2023-02-18T02:55:21;100995.91;;;29.96;57.84
36798;BME280;22748;8.426;99.512;2023-02-18T02:57:53;101009.59;;;29.94;57.72
36798;BME280;22748;8.426;99.512;2023-02-18T03:00:39;101004.59;;;29.98;56.94
36798;BME280;22748;8.426;99.512;2023-02-18T03:03:38;101010.41;;;30.08;57.14
36798;BME280;22748;8.426;99.512;2023-02-18T03:06:28;101002.75;;;30.19;57.11
36798;BME280;22748;8.426;99.512;2023-02-18T03:09:09;101006.25;;;30.19;56.64
36798;BME280;22748;8.426;99.512;2023-02-18T03:11:53;100996.31;;;30.20;56.48
36798;BME280;22748;8.426;99.512;2023-02-18T03:14:39;101002.50;;;30.20;56.66
36798;BME280;22748;8.426;99.512;2023-02-18T03:17:19;101002.13;;;30.23;56.12
36798;BME280;22748;8.426;99.512;2023-02-18T03:19:56;100990.72;;;30.28;55.13
36798;BME280;22748;8.426;99.512;2023-02-18T03:22:34;100994.66;;;30.32;54.28
36798;BME280;22748;8.426;99.512;2023-02-18T03:25:10;100992.16;;;30.37;54.40
36798;BME280;22748;8.426;99.512;2023-02-18T03:27:45;100994.22;;;30.42;54.55
36798;BME280;22748;8.426;99.512;2023-02-18T03:30:22;100988.84;;;30.42;54.14
36798;BME280;22748;8.426;99.512;2023-02-18T03:32:57;100992.97;;;30.44;53.34
36798;BME280;22748;8.426;99.512;2023-02-18T03:35:30;100986.75;;;30.50;53.47
36798;BME280;22748;8.426;99.512;2023-02-18T03:38:08;100972.00;;;30.53;53.40
36798;BME280;22748;8.426;99.512;2023-02-18T03:40:44;100972.63;;;30.55;53.64
36798;BME280;22748;8.426;99.512;2023-02-18T03:43:15;100972.00;;;30.60;53.35
36798;BME280;22748;8.426;99.512;2023-02-18T03:45:46;100959.97;;;30.62;53.41
36798;BME280;22748;8.426;99.512;2023-02-18T03:48:17;100961.81;;;30.68;53.18
36798;BME280;22748;8.426;99.512;2023-02-18T03:50:47;100953.09;;;30.73;53.10
36798;BME280;22748;8.426;99.512;2023-02-18T03:53:18;100959.09;;;30.75;53.12
36798;BME280;22748;8.426;99.512;2023-02-18T03:55:51;100953.25;;;30.78;52.98
36798;BME280;22748;8.426;99.512;2023-02-18T03:58:20;100953.44;;;30.83;52.83
36798;BME280;22748;8.426;99.512;2023-02-18T04:00:51;100949.75;;;30.78;52.36
36798;BME280;22748;8.426;99.512;2023-02-18T04:03:22;100948.47;;;30.80;52.68
36798;BME280;22748;8.426;99.512;2023-02-18T04:05:52;100941.41;;;30.79;52.50
36798;BME280;22748;8.426;99.512;2023-02-18T04:08:23;100937.88;;;30.85;52.78
36798;BME280;22748;8.426;99.512;2023-02-18T04:10:55;100929.41;;;30.88;52.63
36798;BME280;22748;8.426;99.512;2023-02-18T04:13:25;100929.38;;;30.95;52.29
36798;BME280;22748;8.426;99.512;2023-02-18T04:15:56;100923.72;;;30.96;52.36
36798;BME280;22748;8.426;99.512;2023-02-18T04:18:27;100920.00;;;30.98;52.41
36798;BME280;22748;8.426;99.512;2023-02-18T04:20:58;100915.22;;;31.00;52.56
36798;BME280;22748;8.426;99.512;2023-02-18T04:23:42;100908.94;;;31.12;52.24
36798;BME280;22748;8.426;99.512;2023-02-18T04:26:22;100910.53;;;31.20;51.93
36798;BME280;22748;8.426;99.512;2023-02-18T04:28:56;100907.56;;;31.28;51.66
36798;BME280;22748;8.426;99.512;2023-02-18T04:31:27;100892.59;;;31.32;51.28
36798;BME280;22748;8.426;99.512;2023-02-18T04:33:59;100884.69;;;31.31;50.94
36798;BME280;22748;8.426;99.512;2023-02-18T04:36:33;100873.84;;;31.37;50.80
36798;BME280;22748;8.426;99.512;2023-02-18T04:39:05;100871.38;;;31.43;49.97
36798;BME280;22748;8.426;99.512;2023-02-18T04:41:38;100868.00;;;31.47;50.30
36798;BME280;22748;8.426;99.512;2023-02-18T04:44:08;100865.09;;;31.49;50.21
36798;BME280;22748;8.426;99.512;2023-02-18T04:46:39;100866.53;;;31.51;50.40
36798;BME280;22748;8.426;99.512;2023-02-18T04:49:11;100856.94;;;31.55;49.86
36798;BME280;22748;8.426;99.512;2023-02-18T04:51:44;100850.88;;;31.60;49.62
36798;BME280;22748;8.426;99.512;2023-02-18T04:54:14;100840.69;;;31.62;50.01
36798;BME280;22748;8.426;99.512;2023-02-18T04:56:50;100830.03;;;31.67;49.63
36798;BME280;22748;8.426;99.512;2023-02-18T04:59:22;100823.53;;;31.75;49.08
36798;BME280;22748;8.426;99.512;2023-02-18T05:01:52;100810.38;;;31.78;49.51
36798;BME280;22748;8.426;99.512;2023-02-18T05:04:23;100803.88;;;31.86;49.68
36798;BME280;22748;8.426;99.512;2023-02-18T05:06:53;100797.03;;;31.84;48.42
36798;BME280;22748;8.426;99.512;2023-02-18T05:09:24;100793.28;;;31.85;48.69
36798;BME280;22748;8.426;99.512;2023-02-18T05:11:57;100791.19;;;31.87;48.90
36798;BME280;22748;8.426;99.512;2023-02-18T05:14:28;100790.03;;;31.94;48.86
36798;BME280;22748;8.426;99.512;2023-02-18T05:16:58;100783.16;;;31.98;48.28
36798;BME280;22748;8.426;99.512;2023-02-18T05:19:31;100778.88;;;32.09;48.84
36798;BME280;22748;8.426;99.512;2023-02-18T05:22:09;100772.34;;;31.98;47.76
36798;BME280;22748;8.426;99.512;2023-02-18T05:24:48;100766.78;;;31.93;47.92
36798;BME280;22748;8.426;99.512;2023-02-18T05:27:33;100760.31;;;32.01;47.54
36798;BME280;22748;8.426;99.512;2023-02-18T05:30:12;100755.16;;;32.11;47.74
36798;BME280;22748;8.426;99.512;2023-02-18T05:32:47;100752.63;;;32.16;47.79
36798;BME280;22748;8.426;99.512;2023-02-18T05:35:17;100745.22;;;32.24;47.53
36798;BME280;22748;8.426;99.512;2023-02-18T05:37:48;100744.16;;;32.25;47.18
36798;BME280;22748;8.426;99.512;2023-02-18T05:40:20;100740.88;;;32.23;47.68
36798;BME280;22748;8.426;99.512;2023-02-18T05:42:57;100739.13;;;32.28;47.94
36798;BME280;22748;8.426;99.512;2023-02-18T05:45:27;100726.44;;;32.29;48.01
36798;BME280;22748;8.426;99.512;2023-02-18T05:47:56;100720.81;;;32.30;47.76
36798;BME280;22748;8.426;99.512;2023-02-18T05:50:26;100721.19;;;32.34;47.54
36798;BME280;22748;8.426;99.512;2023-02-18T05:52:56;100715.78;;;32.34;47.55
36798;BME280;22748;8.426;99.512;2023-02-18T05:55:26;100708.28;;;32.36;48.02
36798;BME280;22748;8.426;99.512;2023-02-18T05:58:00;100715.63;;;32.29;47.61
36798;BME280;22748;8.426;99.512;2023-02-18T06:00:31;100704.97;;;32.34;47.84
36798;BME280;22748;8.426;99.512;2023-02-18T06:03:01;100706.06;;;32.45;47.58
36798;BME280;22748;8.426;99.512;2023-02-18T06:05:33;100699.00;;;32.44;47.15
36798;BME280;22748;8.426;99.512;2023-02-18T06:08:03;100687.22;;;32.38;47.36
36798;BME280;22748;8.426;99.512;2023-02-18T06:10:33;100687.38;;;32.43;46.89
36798;BME280;22748;8.426;99.512;2023-02-18T06:13:04;100676.44;;;32.50;47.23
36798;BME280;22748;8.426;99.512;2023-02-18T06:15:34;100668.09;;;32.51;47.10
36798;BME280;22748;8.426;99.512;2023-02-18T06:18:04;100660.16;;;32.56;46.96
36798;BME280;22748;8.426;99.512;2023-02-18T06:20:35;100660.16;;;32.56;47.01
36798;BME280;22748;8.426;99.512;2023-02-18T06:23:05;100650.16;;;32.57;47.17
36798;BME280;22748;8.426;99.512;2023-02-18T06:25:36;100647.22;;;32.58;47.26
36798;BME280;22748;8.426;99.512;2023-02-18T06:28:07;100638.03;;;32.59;47.57
36798;BME280;22748;8.426;99.512;2023-02-18T06:30:40;100626.50;;;32.64;47.02
36798;BME280;22748;8.426;99.512;2023-02-18T06:33:11;100628.75;;;32.67;46.84
36798;BME280;22748;8.426;99.512;2023-02-18T06:35:50;100622.06;;;32.70;46.65
36798;BME280;22748;8.426;99.512;2023-02-18T06:38:21;100621.25;;;32.69;47.24
36798;BME280;22748;8.426;99.512;2023-02-18T06:40:51;100625.00;;;32.68;47.07
36798;BME280;22748;8.426;99.512;2023-02-18T06:43:25;100616.28;;;32.66;47.01
36798;BME280;22748;8.426;99.512;2023-02-18T06:45:56;100613.25;;;32.63;47.34
36798;BME280;22748;8.426;99.512;2023-02-18T06:48:27;100608.88;;;32.62;47.52
36798;BME280;22748;8.426;99.512;2023-02-18T06:50:58;100605.59;;;32.59;46.62
36798;BME280;22748;8.426;99.512;2023-02-18T06:53:28;100598.06;;;32.62;47.18
36798;BME280;22748;8.426;99.512;2023-02-18T06:55:59;100593.03;;;32.65;47.17
36798;BME280;22748;8.426;99.512;2023-02-18T06:58:31;100593.38;;;32.69;47.32
36798;BME280;22748;8.426;99.512;2023-02-18T07:01:01;100587.25;;;32.73;47.51
36798;BME280;22748;8.426;99.512;2023-02-18T07:03:31;100587.00;;;32.75;47.48
36798;BME280;22748;8.426;99.512;2023-02-18T07:06:01;100582.69;;;32.74;47.36
36798;BME280;22748;8.426;99.512;2023-02-18T07:08:31;100575.50;;;32.68;47.44
36798;BME280;22748;8.426;99.512;2023-02-18T07:11:04;100571.41;;;32.65;47.46
36798;BME280;22748;8.426;99.512;2023-02-18T07:13:37;100556.81;;;32.54;47.89
36798;BME280;22748;8.426;99.512;2023-02-18T07:16:08;100559.03;;;32.57;47.85
36798;BME280;22748;8.426;99.512;2023-02-18T07:18:37;100555.53;;;32.57;47.96
36798;BME280;22748;8.426;99.512;2023-02-18T07:21:08;100564.13;;;32.54;47.69
36798;BME280;22748;8.426;99.512;2023-02-18T07:23:38;100551.63;;;32.53;47.76
36798;BME280;22748;8.426;99.512;2023-02-18T07:26:08;100548.72;;;32.54;47.94
36798;BME280;22748;8.426;99.512;2023-02-18T07:28:40;100537.16;;;32.47;47.95
36798;BME280;22748;8.426;99.512;2023-02-18T07:31:10;100540.00;;;32.52;47.63
36798;BME280;22748;8.426;99.512;2023-02-18T07:33:41;100531.75;;;32.47;47.78
36798;BME280;22748;8.426;99.512;2023-02-18T07:36:11;100529.66;;;32.49;47.72
36798;BME280;22748;8.426;99.512;2023-02-18T07:38:41;100529.19;;;32.52;47.95
36798;BME280;22748;8.426;99.512;2023-02-18T07:41:20;100520.94;;;32.47;48.02
36798;BME280;22748;8.426;99.512;2023-02-18T07:43:52;100520.47;;;32.50;48.10
36798;BME280;22748;8.426;99.512;2023-02-18T07:59:17;100515.00;;;32.97;47.44
36798;BME280;22748;8.426;99.512;2023-02-18T08:01:46;100504.78;;;32.88;47.79
36798;BME280;22748;8.426;99.512;2023-02-18T08:04:16;100509.53;;;32.81;48.16
36798;BME280;22748;8.426;99.512;2023-02-18T08:06:47;100504.25;;;32.74;48.69
36798;BME280;22748;8.426;99.512;2023-02-18T08:09:19;100503.06;;;32.70;48.85
36798;BME280;22748;8.426;99.512;2023-02-18T08:11:51;100501.31;;;32.64;48.84
36798;BME280;22748;8.426;99.512;2023-02-18T08:14:24;100493.91;;;32.47;49.79
36798;BME280;22748;8.426;99.512;2023-02-18T08:16:54;100489.34;;;32.48;50.23
36798;BME280;22748;8.426;99.512;2023-02-18T08:19:24;100483.69;;;32.49;50.44
36798;BME280;22748;8.426;99.512;2023-02-18T08:21:55;100483.94;;;32.48;50.59
36798;BME280;22748;8.426;99.512;2023-02-18T08:24:25;100476.84;;;32.47;50.89
36798;BME280;22748;8.426;99.512;2023-02-18T08:26:55;100470.63;;;32.46;51.10
36798;BME280;22748;8.426;99.512;2023-02-18T08:29:25;100477.13;;;32.45;51.48
36798;BME280;22748;8.426;99.512;2023-02-18T08:31:55;100470.63;;;32.46;51.23
36798;BME280;22748;8.426;99.512;2023-02-18T08:34:25;100458.66;;;32.42;51.80
36798;BME280;22748;8.426;99.512;2023-02-18T08:36:55;100464.53;;;32.39;51.72
36798;BME280;22748;8.426;99.512;2023-02-18T08:39:26;100454.53;;;32.39;51.55
36798;BME280;22748;8.426;99.512;2023-02-18T08:41:57;100457.03;;;32.41;52.02
36798;BME280;22748;8.426;99.512;2023-02-18T08:44:32;100463.00;;;32.43;51.94
36798;BME280;22748;8.426;99.512;2023-02-18T08:47:03;100465.22;;;32.46;52.06
36798;BME280;22748;8.426;99.512;2023-02-18T08:49:33;100461.47;;;32.47;52.52
36798;BME280;22748;8.426;99.512;2023-02-18T08:52:04;100457.72;;;32.48;52.84
36798;BME280;22748;8.426;99.512;2023-02-18T08:54:34;100461.22;;;32.49;53.02
36798;BME280;22748;8.426;99.512;2023-02-18T08:57:05;100452.31;;;32.48;53.11
36798;BME280;22748;8.426;99.512;2023-02-18T08:59:36;100448.78;;;32.48;53.24
36798;BME280;22748;8.426;99.512;2023-02-18T09:02:05;100462.44;;;32.41;53.08
36798;BME280;22748;8.426;99.512;2023-02-18T09:04:35;100461.94;;;32.44;53.81
36798;BME280;22748;8.426;99.512;2023-02-18T09:07:05;100457.59;;;32.43;53.21
36798;BME280;22748;8.426;99.512;2023-02-18T09:09:36;100458.19;;;32.45;53.48
36798;BME280;22748;8.426;99.512;2023-02-18T09:12:07;100454.41;;;32.46;53.40
36798;BME280;22748;8.426;99.512;2023-02-18T09:14:39;100446.31;;;32.46;53.93
36798;BME280;22748;8.426;99.512;2023-02-18T09:17:10;100453.59;;;32.46;53.96
36798;BME280;22748;8.426;99.512;2023-02-18T09:19:40;100455.81;;;32.49;53.68
36798;BME280;22748;8.426;99.512;2023-02-18T09:22:11;100451.84;;;32.51;54.03
36798;BME280;22748;8.426;99.512;2023-02-18T09:24:43;100454.31;;;32.53;53.35
36798;BME280;22748;8.426;99.512;2023-02-18T09:27:13;100446.78;;;32.55;53.93
36798;BME280;22748;8.426;99.512;2023-02-18T09:29:45;100446.78;;;32.55;54.42
36798;BME280;22748;8.426;99.512;2023-02-18T09:32:17;100454.66;;;32.56;54.07
36798;BME280;22748;8.426;99.512;2023-02-18T09:34:48;100453.59;;;32.57;53.28
36798;BME280;22748;8.426;99.512;2023-02-18T09:37:19;100453.00;;;32.55;52.78
36798;BME280;22748;8.426;99.512;2023-02-18T09:39:50;100438.44;;;32.56;53.34
36798;BME280;22748;8.426;99.512;2023-02-18T09:42:26;100447.16;;;32.58;52.80
36798;BME280;22748;8.426;99.512;2023-02-18T09:45:02;100447.38;;;32.45;53.45
36798;BME280;22748;8.426;99.512;2023-02-18T09:47:36;100446.22;;;32.41;51.98
36798;BME280;22748;8.426;99.512;2023-02-18T09:50:12;100450.53;;;32.42;52.42
36798;BME280;22748;8.426;99.512;2023-02-18T09:52:43;100461.75;;;32.34;51.76
36798;BME280;22748;8.426;99.512;2023-02-18T09:55:19;100466.56;;;32.32;51.54
36798;BME280;22748;8.426;99.512;2023-02-18T09:57:50;100473.69;;;32.38;51.63
36798;BME280;22748;8.426;99.512;2023-02-18T10:00:26;100478.66;;;32.41;50.88
36798;BME280;22748;8.426;99.512;2023-02-18T10:02:58;100486.53;;;32.31;51.41
36798;BME280;22748;8.426;99.512;2023-02-18T10:05:30;100483.00;;;32.30;51.24
36798;BME280;22748;8.426;99.512;2023-02-18T10:08:03;100485.47;;;32.32;51.56
36798;BME280;22748;8.426;99.512;2023-02-18T10:10:39;100487.69;;;32.35;51.42
36798;BME280;22748;8.426;99.512;2023-02-18T10:13:14;100491.94;;;32.43;51.10
36798;BME280;22748;8.426;99.512;2023-02-18T10:15:48;100484.75;;;32.48;50.92
36798;BME280;22748;8.426;99.512;2023-02-18T10:18:24;100489.91;;;32.50;50.87
36798;BME280;22748;8.426;99.512;2023-02-18T10:21:02;100495.56;;;32.48;50.64
36798;BME280;22748;8.426;99.512;2023-02-18T10:23:35;100493.66;;;32.49;50.79
36798;BME280;22748;8.426;99.512;2023-02-18T10:26:11;100500.50;;;32.51;50.46
36798;BME280;22748;8.426;99.512;2023-02-18T10:28:44;100498.25;;;32.48;50.77
36798;BME280;22748;8.426;99.512;2023-02-18T10:31:19;100498.97;;;32.44;50.45
36798;BME280;22748;8.426;99.512;2023-02-18T10:33:59;100495.44;;;32.43;50.46
36798;BME280;22748;8.426;99.512;2023-02-18T10:36:36;100505.19;;;32.44;50.99
36798;BME280;22748;8.426;99.512;2023-02-18T10:39:33;100516.00;;;32.44;50.41
36798;BME280;22748;8.426;99.512;2023-02-18T10:42:19;100524.69;;;32.46;50.53
36798;BME280;22748;8.426;99.512;2023-02-18T10:44:59;100524.69;;;32.46;50.47
36798;BME280;22748;8.426;99.512;2023-02-18T10:47:39;100520.22;;;32.40;50.67
36798;BME280;22748;8.426;99.512;2023-02-18T10:50:13;100521.66;;;32.31;49.85
36798;BME280;22748;8.426;99.512;2023-02-18T10:52:50;100529.75;;;32.31;50.42
36798;BME280;22748;8.426;99.512;2023-02-18T10:55:34;100534.94;;;32.32;50.36
36798;BME280;22748;8.426;99.512;2023-02-18T10:58:24;100539.53;;;32.32;50.58
36798;BME280;22748;8.426;99.512;2023-02-18T11:00:54;100550.94;;;32.34;49.94
36798;BME280;22748;8.426;99.512;2023-02-18T11:03:35;100542.56;;;32.24;50.28
36798;BME280;22748;8.426;99.512;2023-02-18T11:06:20;100543.97;;;32.26;50.29
36798;BME280;22748;8.426;99.512;2023-02-18T11:08:50;100556.19;;;32.29;50.00
36798;BME280;22748;8.426;99.512;2023-02-18T11:11:24;100552.91;;;32.27;50.05
36798;BME280;22748;8.426;99.512;2023-02-18T11:13:59;100557.84;;;32.30;49.94
36798;BME280;22748;8.426;99.512;2023-02-18T11:16:37;100566.19;;;32.28;50.04
36798;BME280;22748;8.426;99.512;2023-02-18T11:19:31;100566.19;;;32.16;50.54
36798;BME280;22748;8.426;99.512;2023-02-18T11:22:10;100573.59;;;32.21;49.86
36798;BME280;22748;8.426;99.512;2023-02-18T11:24:44;100575.81;;;32.24;50.00
36798;BME280;22748;8.426;99.512;2023-02-18T11:27:23;100576.63;;;32.25;50.24
36798;BME280;22748;8.426;99.512;2023-02-18T11:29:57;100580.41;;;32.24;50.33
36798;BME280;22748;8.426;99.512;2023-02-18T11:32:29;100580.41;;;32.24;50.11
36798;BME280;22748;8.426;99.512;2023-02-18T11:35:02;100589.91;;;32.26;50.26
36798;BME280;22748;8.426;99.512;2023-02-18T11:37:32;100582.03;;;32.25;49.71
36798;BME280;22748;8.426;99.512;2023-02-18T11:40:04;100588.50;;;32.24;49.83
36798;BME280;22748;8.426;99.512;2023-02-18T11:42:34;100589.53;;;32.23;50.01
36798;BME280;22748;8.426;99.512;2023-02-18T11:45:06;100592.00;;;32.12;50.20
36798;BME280;22748;8.426;99.512;2023-02-18T11:48:00;100591.16;;;32.12;50.48
36798;BME280;22748;8.426;99.512;2023-02-18T11:50:33;100597.75;;;32.04;50.16
36798;BME280;22748;8.426;99.512;2023-02-18T11:53:26;100611.03;;;32.06;50.06
36798;BME280;22748;8.426;99.512;2023-02-18T11:55:59;100610.34;;;32.10;50.25
36798;BME280;22748;8.426;99.512;2023-02-18T11:58:37;100616.34;;;32.12;50.62
36798;BME280;22748;8.426;99.512;2023-02-18T12:01:13;100630.44;;;32.14;50.42
36798;BME280;22748;8.426;99.512;2023-02-18T12:03:47;100644.97;;;32.13;50.44
36798;BME280;22748;8.426;99.512;2023-02-18T12:06:25;100654.16;;;32.12;50.21
36798;BME280;22748;8.426;99.512;2023-02-18T12:09:03;100657.91;;;32.11;50.25
36798;BME280;22748;8.426;99.512;2023-02-18T12:11:37;100654.38;;;32.11;50.61
36798;BME280;22748;8.426;99.512;2023-02-18T12:14:13;100662.47;;;32.11;50.69
36798;BME280;22748;8.426;99.512;2023-02-18T12:16:56;100666.25;;;32.10;50.68
36798;BME280;22748;8.426;99.512;2023-02-18T12:19:53;100672.47;;;32.10;50.36
36798;BME280;22748;8.426;99.512;2023-02-18T12:22:40;100679.50;;;32.11;50.74
36798;BME280;22748;8.426;99.512;2023-02-18T12:25:29;100672.47;;;32.10;50.77
36798;BME280;22748;8.426;99.512;2023-02-18T12:28:22;100683.28;;;32.10;50.92
36798;BME280;22748;8.426;99.512;2023-02-18T12:31:12;100687.63;;;32.11;50.90
36798;BME280;22748;8.426;99.512;2023-02-18T12:34:04;100689.72;;;32.09;50.97
36798;BME280;22748;8.426;99.512;2023-02-18T12:37:00;100693.28;;;32.10;50.76
36798;BME280;22748;8.426;99.512;2023-02-18T12:40:01;100707.00;;;32.08;50.70
36798;BME280;22748;8.426;99.512;2023-02-18T12:42:48;100717.81;;;32.08;51.11
36798;BME280;22748;8.426;99.512;2023-02-18T12:45:45;100721.53;;;32.07;51.06
36798;BME280;22748;8.426;99.512;2023-02-18T12:48:37;100725.31;;;32.06;51.06
36798;BME280;22748;8.426;99.512;2023-02-18T12:51:32;100736.13;;;32.06;51.60
36798;BME280;22748;8.426;99.512;2023-02-18T12:54:21;100736.13;;;32.06;51.40
36798;BME280;22748;8.426;99.512;2023-02-18T12:57:07;100743.63;;;32.04;51.48
36798;BME280;22748;8.426;99.512;2023-02-18T13:00:08;100747.34;;;32.03;51.73
36798;BME280;22748;8.426;99.512;2023-02-18T13:02:53;100749.25;;;32.03;51.69
36798;BME280;22748;8.426;99.512;2023-02-18T13:05:35;100761.94;;;32.02;51.87
36798;BME280;22748;8.426;99.512;2023-02-18T13:08:25;100757.81;;;32.00;51.88
36798;BME280;22748;8.426;99.512;2023-02-18T13:11:14;100766.75;;;32.00;52.06
36798;BME280;22748;8.426;99.512;2023-02-18T13:13:54;100762.41;;;31.99;51.94
36798;BME280;22748;8.426;99.512;2023-02-18T13:16:28;100777.31;;;32.02;51.90
36798;BME280;22748;8.426;99.512;2023-02-18T13:19:13;100784.81;;;32.00;51.74
36798;BME280;22748;8.426;99.512;2023-02-18T13:21:49;100795.63;;;32.00;52.29
36798;BME280;22748;8.426;99.512;2023-02-18T13:24:30;100788.56;;;31.98;52.39
36798;BME280;22748;8.426;99.512;2023-02-18T13:27:14;100787.75;;;31.98;52.25
36798;BME280;22748;8.426;99.512;2023-02-18T13:30:00;100797.75;;;31.97;52.29
36798;BME280;22748;8.426;99.512;2023-02-18T13:32:37;100788.78;;;31.97;52.32
36798;BME280;22748;8.426;99.512;2023-02-18T13:35:18;100786.50;;;31.94;52.44
36798;BME280;22748;8.426;99.512;2023-02-18T13:37:52;100788.19;;;31.95;52.64
36798;BME280;22748;8.426;99.512;2023-02-18T13:40:27;100799.81;;;31.95;52.58
36798;BME280;22748;8.426;99.512;2023-02-18T13:43:19;100801.09;;;31.93;53.19
36798;BME280;22748;8.426;99.512;2023-02-18T13:46:09;100805.28;;;31.89;53.30
36798;BME280;22748;8.426;99.512;2023-02-18T13:48:44;100809.88;;;31.88;52.96
36798;BME280;22748;8.426;99.512;2023-02-18T13:51:28;100820.06;;;31.86;52.92
36798;BME280;22748;8.426;99.512;2023-02-18T13:54:04;100833.56;;;31.86;53.46
36798;BME280;22748;8.426;99.512;2023-02-18T13:56:41;100833.56;;;31.86;53.54